sensor_id;sensor_type;location;lat;lon;timestamp;pressure;altitude;pressure_sealevel;temperature;humidity
61408;BME280;47274;43.054;25.146;2023-04-07T00:01:54;95247.31;;;1.71;60.04
61408;BME280;47274;43.054;25.146;2023-04-07T00:04:20;95183.13;;;1.34;60.64
61408;BME280;47274;43.054;25.146;2023-04-07T00:06:46;95246.59;;;1.69;61.06
61408;BME280;47274;43.054;25.146;2023-04-07T00:09:12;95272.41;;;1.87;60.30
61408;BME280;47274;43.054;25.146;2023-04-07T00:11:37;95252.16;;;1.74;58.98
61408;BME280;47274;43.054;25.146;2023-04-07T00:14:03;95250.03;;;1.81;59.37
61408;BME280;47274;43.054;25.146;2023-04-07T00:16:29;95259.47;;;1.79;58.63
61408;BME280;47274;43.054;25.146;2023-04-07T00:18:55;95244.25;;;1.66;58.91
61408;BME280;47274;43.054;25.146;2023-04-07T00:21:20;95258.84;;;1.75;59.33
61408;BME280;47274;43.054;25.146;2023-04-07T00:23:46;95245.59;;;1.72;59.66
61408;BME280;47274;43.054;25.146;2023-04-07T00:26:12;95230.28;;;1.60;57.75
61408;BME280;47274;43.054;25.146;2023-04-07T00:28:41;95238.09;;;1.70;58.37
61408;BME280;47274;43.054;25.146;2023-04-07T00:31:07;95248.53;;;1.78;58.73
61408;BME280;47274;43.054;25.146;2023-04-07T00:33:33;95241.13;;;1.75;57.36
61408;BME280;47274;43.054;25.146;2023-04-07T00:35:58;95253.28;;;1.83;58.87
61408;BME280;47274;43.054;25.146;2023-04-07T00:38:24;95224.63;;;1.70;58.29
61408;BME280;47274;43.054;25.146;2023-04-07T00:40:57;95241.84;;;1.77;58.05
61408;BME280;47274;43.054;25.146;2023-04-07T00:43:23;95237.56;;;1.78;57.14
61408;BME280;47274;43.054;25.146;2023-04-07T00:45:51;95235.28;;;1.75;58.33
61408;BME280;47274;43.054;25.146;2023-04-07T00:48:16;95221.41;;;1.68;59.04
61408;BME280;47274;43.054;25.146;2023-04-07T00:50:44;95248.53;;;1.78;58.68
61408;BME280;47274;43.054;25.146;2023-04-07T00:53:11;95239.50;;;1.74;58.89
61408;BME280;47274;43.054;25.146;2023-04-07T00:55:37;95249.22;;;1.80;58.78
61408;BME280;47274;43.054;25.146;2023-04-07T00:58:03;95262.06;;;1.77;58.26
61408;BME280;47274;43.054;25.146;2023-04-07T01:00:37;95227.34;;;1.66;57.87
61408;BME280;47274;43.054;25.146;2023-04-07T01:03:24;95236.78;;;1.77;56.63
61408;BME280;47274;43.054;25.146;2023-04-07T01:06:00;95234.34;;;1.76;57.89
61408;BME280;47274;43.054;25.146;2023-04-07T01:08:32;95251.88;;;1.79;57.75
61408;BME280;47274;43.054;25.146;2023-04-07T01:17:32;95204.19;;;1.47;57.53
61408;BME280;47274;43.054;25.146;2023-04-07T01:20:37;95208.13;;;1.51;57.80
61408;BME280;47274;43.054;25.146;2023-04-07T01:26:27;95244.97;;;1.81;57.44
61408;BME280;47274;43.054;25.146;2023-04-07T01:31:59;95212.28;;;1.52;58.41
61408;BME280;47274;43.054;25.146;2023-04-07T01:34:26;95228.47;;;1.62;58.16
61408;BME280;47274;43.054;25.146;2023-04-07T01:36:54;95218.25;;;1.64;58.55
61408;BME280;47274;43.054;25.146;2023-04-07T01:39:22;95241.22;;;1.74;59.36
61408;BME280;47274;43.054;25.146;2023-04-07T01:41:49;95225.81;;;1.64;58.37
61408;BME280;47274;43.054;25.146;2023-04-07T01:44:21;95239.00;;;1.69;58.97
61408;BME280;47274;43.054;25.146;2023-04-07T01:46:47;95209.75;;;1.52;59.39
61408;BME280;47274;43.054;25.146;2023-04-07T01:49:15;95179.38;;;1.27;57.81
61408;BME280;47274;43.054;25.146;2023-04-07T01:51:41;95223.19;;;1.53;58.82
61408;BME280;47274;43.054;25.146;2023-04-07T01:54:08;95231.38;;;1.56;58.48
61408;BME280;47274;43.054;25.146;2023-04-07T01:56:34;95234.53;;;1.47;58.87
61408;BME280;47274;43.054;25.146;2023-04-07T01:59:03;95196.53;;;1.22;59.31
61408;BME280;47274;43.054;25.146;2023-04-07T02:01:29;95224.25;;;1.36;59.05
61408;BME280;47274;43.054;25.146;2023-04-07T02:04:04;95208.88;;;1.26;59.19
61408;BME280;47274;43.054;25.146;2023-04-07T02:06:58;95232.03;;;1.33;60.42
61408;BME280;47274;43.054;25.146;2023-04-07T02:09:31;95229.94;;;1.27;60.64
61408;BME280;47274;43.054;25.146;2023-04-07T02:11:59;95227.25;;;1.15;60.07
61408;BME280;47274;43.054;25.146;2023-04-07T02:14:31;95231.72;;;1.25;59.84
61408;BME280;47274;43.054;25.146;2023-04-07T02:17:05;95233.34;;;1.26;60.03
61408;BME280;47274;43.054;25.146;2023-04-07T02:19:32;95222.72;;;1.21;60.26
61408;BME280;47274;43.054;25.146;2023-04-07T02:22:19;95224.03;;;1.13;60.76
61408;BME280;47274;43.054;25.146;2023-04-07T02:24:45;95219.97;;;1.11;60.01
61408;BME280;47274;43.054;25.146;2023-04-07T02:27:11;95230.31;;;1.21;60.51
61408;BME280;47274;43.054;25.146;2023-04-07T02:29:36;95202.03;;;1.01;60.27
61408;BME280;47274;43.054;25.146;2023-04-07T02:32:02;95214.19;;;1.09;60.17
61408;BME280;47274;43.054;25.146;2023-04-07T02:34:28;95211.66;;;1.09;59.44
61408;BME280;47274;43.054;25.146;2023-04-07T02:36:54;95226.63;;;1.12;59.32
61408;BME280;47274;43.054;25.146;2023-04-07T02:39:20;95217.72;;;1.06;59.97
61408;BME280;47274;43.054;25.146;2023-04-07T02:41:45;95208.69;;;1.02;60.09
61408;BME280;47274;43.054;25.146;2023-04-07T02:44:11;95222.06;;;1.04;60.15
61408;BME280;47274;43.054;25.146;2023-04-07T02:46:37;95218.81;;;1.02;60.43
61408;BME280;47274;43.054;25.146;2023-04-07T02:49:03;95214.59;;;1.03;60.15
61408;BME280;47274;43.054;25.146;2023-04-07T02:51:29;95214.34;;;0.93;60.25
61408;BME280;47274;43.054;25.146;2023-04-07T02:53:56;95206.53;;;0.83;60.27
61408;BME280;47274;43.054;25.146;2023-04-07T02:56:22;95215.97;;;0.94;59.71
61408;BME280;47274;43.054;25.146;2023-04-07T02:58:47;95197.41;;;0.81;59.89
61408;BME280;47274;43.054;25.146;2023-04-07T03:01:15;95222.34;;;1.00;59.47
61408;BME280;47274;43.054;25.146;2023-04-07T03:03:41;95215.16;;;0.93;59.98
61408;BME280;47274;43.054;25.146;2023-04-07T03:06:14;95222.16;;;1.03;59.62
61408;BME280;47274;43.054;25.146;2023-04-07T03:08:52;95204.44;;;0.90;59.48
61408;BME280;47274;43.054;25.146;2023-04-07T03:11:18;95209.38;;;0.91;59.56
61408;BME280;47274;43.054;25.146;2023-04-07T03:13:44;95234.25;;;0.98;59.57
61408;BME280;47274;43.054;25.146;2023-04-07T03:16:10;95222.63;;;0.95;60.25
61408;BME280;47274;43.054;25.146;2023-04-07T03:18:45;95170.06;;;0.60;60.02
61408;BME280;47274;43.054;25.146;2023-04-07T03:21:12;95220.19;;;0.93;59.38
61408;BME280;47274;43.054;25.146;2023-04-07T03:23:38;95208.06;;;0.86;60.11
61408;BME280;47274;43.054;25.146;2023-04-07T03:26:05;95230.13;;;0.97;59.94
61408;BME280;47274;43.054;25.146;2023-04-07T03:28:34;95218.34;;;0.83;59.84
61408;BME280;47274;43.054;25.146;2023-04-07T03:31:00;95228.03;;;0.89;60.03
61408;BME280;47274;43.054;25.146;2023-04-07T03:33:27;95235.25;;;0.95;60.16
61408;BME280;47274;43.054;25.146;2023-04-07T03:35:56;95236.34;;;0.91;60.15
61408;BME280;47274;43.054;25.146;2023-04-07T03:38:25;95214.66;;;0.74;59.57
61408;BME280;47274;43.054;25.146;2023-04-07T03:40:56;95237.63;;;0.84;60.17
61408;BME280;47274;43.054;25.146;2023-04-07T03:43:21;95236.66;;;0.86;59.91
61408;BME280;47274;43.054;25.146;2023-04-07T03:45:48;95232.06;;;0.79;60.11
61408;BME280;47274;43.054;25.146;2023-04-07T03:48:16;95248.50;;;0.99;59.97
61408;BME280;47274;43.054;25.146;2023-04-07T03:50:56;95239.44;;;0.82;60.08
61408;BME280;47274;43.054;25.146;2023-04-07T03:53:22;95257.38;;;0.91;60.69
61408;BME280;47274;43.054;25.146;2023-04-07T03:55:50;95229.44;;;0.80;59.85
61408;BME280;47274;43.054;25.146;2023-04-07T03:58:25;95230.69;;;0.87;60.22
61408;BME280;47274;43.054;25.146;2023-04-07T04:00:51;95251.56;;;1.04;60.37
61408;BME280;47274;43.054;25.146;2023-04-07T04:03:16;95244.97;;;1.01;59.88
61408;BME280;47274;43.054;25.146;2023-04-07T04:05:53;95248.31;;;1.02;60.27
61408;BME280;47274;43.054;25.146;2023-04-07T04:08:25;95257.06;;;1.10;59.90
61408;BME280;47274;43.054;25.146;2023-04-07T04:10:51;95227.69;;;0.95;59.55
61408;BME280;47274;43.054;25.146;2023-04-07T04:13:20;95247.13;;;1.07;60.28
61408;BME280;47274;43.054;25.146;2023-04-07T04:15:47;95255.19;;;1.27;59.14
61408;BME280;47274;43.054;25.146;2023-04-07T04:18:14;95256.28;;;1.23;59.84
61408;BME280;47274;43.054;25.146;2023-04-07T04:20:42;95246.16;;;1.23;59.57
61408;BME280;47274;43.054;25.146;2023-04-07T04:23:08;95258.63;;;1.26;59.61
61408;BME280;47274;43.054;25.146;2023-04-07T04:25:35;95217.19;;;1.01;58.88
61408;BME280;47274;43.054;25.146;2023-04-07T04:28:06;95272.22;;;1.37;58.26
61408;BME280;47274;43.054;25.146;2023-04-07T04:30:32;95280.66;;;1.51;58.79
61408;BME280;47274;43.054;25.146;2023-04-07T04:33:02;95262.72;;;1.54;58.04
61408;BME280;47274;43.054;25.146;2023-04-07T04:35:35;95270.16;;;1.70;57.38
61408;BME280;47274;43.054;25.146;2023-04-07T04:38:07;95278.28;;;1.75;57.11
61408;BME280;47274;43.054;25.146;2023-04-07T04:40:35;95281.13;;;1.83;57.83
61408;BME280;47274;43.054;25.146;2023-04-07T04:43:03;95282.91;;;1.81;57.26
61408;BME280;47274;43.054;25.146;2023-04-07T04:45:34;95265.28;;;1.66;56.99
61408;BME280;47274;43.054;25.146;2023-04-07T04:48:01;95267.41;;;1.60;57.66
61408;BME280;47274;43.054;25.146;2023-04-07T04:50:27;95273.88;;;1.64;57.60
61408;BME280;47274;43.054;25.146;2023-04-07T04:52:54;95276.41;;;1.64;56.82
61408;BME280;47274;43.054;25.146;2023-04-07T04:55:22;95280.78;;;1.62;56.82
61408;BME280;47274;43.054;25.146;2023-04-07T04:57:49;95281.69;;;1.74;57.69
61408;BME280;47274;43.054;25.146;2023-04-07T05:00:21;95271.56;;;1.74;56.44
61408;BME280;47274;43.054;25.146;2023-04-07T05:02:51;95286.97;;;1.83;56.86
61408;BME280;47274;43.054;25.146;2023-04-07T05:05:17;95288.31;;;1.89;56.91
61408;BME280;47274;43.054;25.146;2023-04-07T05:07:43;95285.47;;;1.94;57.02
61408;BME280;47274;43.054;25.146;2023-04-07T05:10:12;95298.84;;;2.08;57.61
61408;BME280;47274;43.054;25.146;2023-04-07T05:12:44;95289.94;;;2.03;56.84
61408;BME280;47274;43.054;25.146;2023-04-07T05:15:10;95283.56;;;2.10;55.54
61408;BME280;47274;43.054;25.146;2023-04-07T05:17:37;95268.59;;;2.20;56.56
61408;BME280;47274;43.054;25.146;2023-04-07T05:20:04;95288.03;;;2.45;56.84
61408;BME280;47274;43.054;25.146;2023-04-07T05:22:39;95291.34;;;2.45;56.40
61408;BME280;47274;43.054;25.146;2023-04-07T05:25:08;95307.44;;;2.70;55.09
61408;BME280;47274;43.054;25.146;2023-04-07T05:27:34;95275.50;;;2.80;55.05
61408;BME280;47274;43.054;25.146;2023-04-07T05:30:06;95297.25;;;3.08;53.47
61408;BME280;47274;43.054;25.146;2023-04-07T05:32:34;95292.47;;;3.27;54.61
61408;BME280;47274;43.054;25.146;2023-04-07T05:35:06;95305.53;;;3.10;51.53
61408;BME280;47274;43.054;25.146;2023-04-07T05:37:35;95314.78;;;3.35;53.10
61408;BME280;47274;43.054;25.146;2023-04-07T05:40:03;95291.09;;;3.47;51.31
61408;BME280;47274;43.054;25.146;2023-04-07T05:42:30;95308.00;;;3.60;51.19
61408;BME280;47274;43.054;25.146;2023-04-07T05:44:56;95316.22;;;3.74;51.76
61408;BME280;47274;43.054;25.146;2023-04-07T05:47:24;95292.59;;;3.74;50.32
61408;BME280;47274;43.054;25.146;2023-04-07T05:49:50;95310.13;;;3.77;50.72
61408;BME280;47274;43.054;25.146;2023-04-07T05:52:16;95303.28;;;4.01;51.02
61408;BME280;47274;43.054;25.146;2023-04-07T05:54:48;95293.28;;;4.34;50.72
61408;BME280;47274;43.054;25.146;2023-04-07T05:57:15;95274.56;;;4.12;49.01
61408;BME280;47274;43.054;25.146;2023-04-07T05:59:44;95299.41;;;4.31;49.94
61408;BME280;47274;43.054;25.146;2023-04-07T06:02:10;95281.88;;;4.50;49.85
61408;BME280;47274;43.054;25.146;2023-04-07T06:04:37;95314.56;;;4.78;47.36
61408;BME280;47274;43.054;25.146;2023-04-07T06:07:06;95293.19;;;4.80;49.73
61408;BME280;47274;43.054;25.146;2023-04-07T06:09:32;95293.84;;;5.05;48.23
61408;BME280;47274;43.054;25.146;2023-04-07T06:11:57;95322.66;;;4.94;48.75
61408;BME280;47274;43.054;25.146;2023-04-07T06:14:24;95312.59;;;4.81;48.96
61408;BME280;47274;43.054;25.146;2023-04-07T06:16:50;95312.03;;;4.78;47.40
61408;BME280;47274;43.054;25.146;2023-04-07T06:19:16;95322.19;;;4.89;49.44
61408;BME280;47274;43.054;25.146;2023-04-07T06:21:42;95310.03;;;5.15;47.71
61408;BME280;47274;43.054;25.146;2023-04-07T06:24:08;95323.81;;;4.79;49.12
61408;BME280;47274;43.054;25.146;2023-04-07T06:26:34;95325.34;;;5.36;50.23
61408;BME280;47274;43.054;25.146;2023-04-07T06:29:03;95325.69;;;5.86;47.99
61408;BME280;47274;43.054;25.146;2023-04-07T06:31:29;95305.06;;;5.57;46.59
61408;BME280;47274;43.054;25.146;2023-04-07T06:33:55;95324.13;;;6.06;48.03
61408;BME280;47274;43.054;25.146;2023-04-07T06:36:21;95321.06;;;6.54;46.64
61408;BME280;47274;43.054;25.146;2023-04-07T06:38:48;95328.91;;;6.72;45.77
61408;BME280;47274;43.054;25.146;2023-04-07T06:41:14;95332.38;;;6.92;46.27
61408;BME280;47274;43.054;25.146;2023-04-07T06:43:43;95340.25;;;6.58;43.63
61408;BME280;47274;43.054;25.146;2023-04-07T06:46:09;95343.22;;;6.63;43.31
61408;BME280;47274;43.054;25.146;2023-04-07T06:48:35;95333.00;;;6.84;44.83
61408;BME280;47274;43.054;25.146;2023-04-07T06:51:00;95327.22;;;6.82;43.04
61408;BME280;47274;43.054;25.146;2023-04-07T06:53:26;95334.69;;;7.14;43.62
61408;BME280;47274;43.054;25.146;2023-04-07T06:56:02;95332.88;;;6.85;44.44
61408;BME280;47274;43.054;25.146;2023-04-07T06:58:31;95355.31;;;6.92;43.58
61408;BME280;47274;43.054;25.146;2023-04-07T07:00:57;95356.75;;;6.33;44.76
61408;BME280;47274;43.054;25.146;2023-04-07T07:03:23;95342.88;;;6.47;43.06
61408;BME280;47274;43.054;25.146;2023-04-07T07:05:51;95341.63;;;6.93;43.80
61408;BME280;47274;43.054;25.146;2023-04-07T07:08:17;95336.41;;;7.44;44.27
61408;BME280;47274;43.054;25.146;2023-04-07T07:10:43;95349.25;;;7.83;42.24
61408;BME280;47274;43.054;25.146;2023-04-07T07:13:11;95341.13;;;8.36;44.30
61408;BME280;47274;43.054;25.146;2023-04-07T07:15:37;95345.66;;;7.45;42.65
61408;BME280;47274;43.054;25.146;2023-04-07T07:18:03;95359.88;;;7.38;41.49
61408;BME280;47274;43.054;25.146;2023-04-07T07:20:29;95344.78;;;7.85;42.28
61408;BME280;47274;43.054;25.146;2023-04-07T07:22:54;95357.38;;;7.57;43.59
61408;BME280;47274;43.054;25.146;2023-04-07T07:25:21;95355.31;;;7.22;41.42
61408;BME280;47274;43.054;25.146;2023-04-07T07:27:47;95361.97;;;7.64;43.75
61408;BME280;47274;43.054;25.146;2023-04-07T07:30:21;95357.41;;;8.54;44.03
61408;BME280;47274;43.054;25.146;2023-04-07T07:32:47;95337.19;;;8.61;41.71
61408;BME280;47274;43.054;25.146;2023-04-07T07:35:14;95345.84;;;8.31;40.88
61408;BME280;47274;43.054;25.146;2023-04-07T07:37:40;95363.34;;;9.30;42.34
61408;BME280;47274;43.054;25.146;2023-04-07T07:40:06;95351.31;;;10.03;42.42
61408;BME280;47274;43.054;25.146;2023-04-07T07:42:32;95358.22;;;10.64;41.58
61408;BME280;47274;43.054;25.146;2023-04-07T07:44:58;95355.28;;;10.59;38.23
61408;BME280;47274;43.054;25.146;2023-04-07T07:47:24;95363.88;;;10.76;40.28
61408;BME280;47274;43.054;25.146;2023-04-07T07:49:51;95373.88;;;10.53;38.53
61408;BME280;47274;43.054;25.146;2023-04-07T07:52:17;95360.75;;;10.20;39.20
61408;BME280;47274;43.054;25.146;2023-04-07T07:54:43;95345.03;;;10.85;39.69
61408;BME280;47274;43.054;25.146;2023-04-07T07:57:08;95365.53;;;11.46;37.44
61408;BME280;47274;43.054;25.146;2023-04-07T07:59:34;95371.19;;;11.66;36.34
61408;BME280;47274;43.054;25.146;2023-04-07T08:02:00;95357.34;;;10.56;36.93
61408;BME280;47274;43.054;25.146;2023-04-07T08:04:26;95371.69;;;10.40;38.67
61408;BME280;47274;43.054;25.146;2023-04-07T08:06:52;95367.31;;;10.85;39.63
61408;BME280;47274;43.054;25.146;2023-04-07T08:09:20;95366.41;;;11.71;38.15
61408;BME280;47274;43.054;25.146;2023-04-07T08:11:46;95358.59;;;11.89;36.95
61408;BME280;47274;43.054;25.146;2023-04-07T08:14:25;95357.84;;;12.29;38.04
61408;BME280;47274;43.054;25.146;2023-04-07T08:16:50;95359.72;;;11.94;34.64
61408;BME280;47274;43.054;25.146;2023-04-07T08:19:16;95343.66;;;12.17;35.73
61408;BME280;47274;43.054;25.146;2023-04-07T08:24:59;95286.72;;;11.79;37.80
61408;BME280;47274;43.054;25.146;2023-04-07T08:27:25;95315.31;;;12.82;37.10
61408;BME280;47274;43.054;25.146;2023-04-07T08:30:02;95331.34;;;13.79;36.74
61408;BME280;47274;43.054;25.146;2023-04-07T08:35:01;95355.63;;;13.62;36.42
61408;BME280;47274;43.054;25.146;2023-04-07T08:37:27;95350.03;;;12.94;33.07
61408;BME280;47274;43.054;25.146;2023-04-07T08:39:52;95346.56;;;12.05;32.03
61408;BME280;47274;43.054;25.146;2023-04-07T08:42:19;95334.00;;;12.43;35.04
61408;BME280;47274;43.054;25.146;2023-04-07T08:44:47;95334.50;;;11.98;33.75
61408;BME280;47274;43.054;25.146;2023-04-07T08:47:19;95355.94;;;10.61;34.32
61408;BME280;47274;43.054;25.146;2023-04-07T08:49:47;95361.31;;;10.14;35.13
61408;BME280;47274;43.054;25.146;2023-04-07T08:52:16;95361.22;;;11.54;36.45
61408;BME280;47274;43.054;25.146;2023-04-07T08:54:43;95358.34;;;13.13;35.28
61408;BME280;47274;43.054;25.146;2023-04-07T08:57:09;95340.91;;;12.67;34.89
61408;BME280;47274;43.054;25.146;2023-04-07T08:59:36;95344.03;;;13.02;34.55
61408;BME280;47274;43.054;25.146;2023-04-07T09:02:03;95353.53;;;13.01;31.61
61408;BME280;47274;43.054;25.146;2023-04-07T09:04:49;95313.00;;;10.02;32.89
61408;BME280;47274;43.054;25.146;2023-04-07T09:07:16;95357.41;;;9.29;34.27
61408;BME280;47274;43.054;25.146;2023-04-07T09:09:41;95297.69;;;10.10;35.19
61408;BME280;47274;43.054;25.146;2023-04-07T09:12:07;95279.91;;;11.37;36.49
61408;BME280;47274;43.054;25.146;2023-04-07T09:14:33;95335.13;;;12.65;32.86
61408;BME280;47274;43.054;25.146;2023-04-07T09:16:59;95354.28;;;12.30;33.82
61408;BME280;47274;43.054;25.146;2023-04-07T09:19:26;95371.00;;;12.67;33.71
61408;BME280;47274;43.054;25.146;2023-04-07T09:21:52;95359.91;;;12.25;32.90
61408;BME280;47274;43.054;25.146;2023-04-07T09:24:26;95362.31;;;12.02;31.40
61408;BME280;47274;43.054;25.146;2023-04-07T09:27:18;95372.09;;;10.54;34.06
61408;BME280;47274;43.054;25.146;2023-04-07T09:29:46;95351.06;;;12.61;34.59
61408;BME280;47274;43.054;25.146;2023-04-07T09:32:20;95347.81;;;13.39;32.93
61408;BME280;47274;43.054;25.146;2023-04-07T09:34:58;95359.88;;;12.83;32.66
61408;BME280;47274;43.054;25.146;2023-04-07T09:37:24;95368.53;;;10.73;33.46
61408;BME280;47274;43.054;25.146;2023-04-07T09:39:53;95368.81;;;10.08;35.25
61408;BME280;47274;43.054;25.146;2023-04-07T09:42:19;95343.16;;;11.38;34.35
61408;BME280;47274;43.054;25.146;2023-04-07T09:44:46;95360.22;;;10.79;33.73
61408;BME280;47274;43.054;25.146;2023-04-07T09:47:11;95379.69;;;12.33;33.93
61408;BME280;47274;43.054;25.146;2023-04-07T09:49:54;95382.06;;;11.43;33.67
61408;BME280;47274;43.054;25.146;2023-04-07T09:52:52;95367.81;;;12.48;32.88
61408;BME280;47274;43.054;25.146;2023-04-07T09:55:22;95367.03;;;13.20;31.96
61408;BME280;47274;43.054;25.146;2023-04-07T09:57:52;95372.19;;;13.12;30.27
61408;BME280;47274;43.054;25.146;2023-04-07T10:00:20;95353.03;;;13.14;33.44
61408;BME280;47274;43.054;25.146;2023-04-07T10:02:46;95371.44;;;13.03;31.59
61408;BME280;47274;43.054;25.146;2023-04-07T10:05:16;95364.19;;;12.98;30.55
61408;BME280;47274;43.054;25.146;2023-04-07T10:07:44;95357.16;;;13.40;33.08
61408;BME280;47274;43.054;25.146;2023-04-07T10:10:10;95376.03;;;13.40;31.73
61408;BME280;47274;43.054;25.146;2023-04-07T10:12:37;95372.53;;;13.09;32.42
61408;BME280;47274;43.054;25.146;2023-04-07T10:15:06;95377.72;;;12.92;30.52
61408;BME280;47274;43.054;25.146;2023-04-07T10:17:33;95366.97;;;12.64;32.70
61408;BME280;47274;43.054;25.146;2023-04-07T10:20:01;95380.34;;;12.11;30.99
61408;BME280;47274;43.054;25.146;2023-04-07T10:22:30;95378.25;;;12.39;32.38
61408;BME280;47274;43.054;25.146;2023-04-07T10:25:13;95355.03;;;12.88;36.17
61408;BME280;47274;43.054;25.146;2023-04-07T10:27:45;95363.09;;;13.80;36.26
61408;BME280;47274;43.054;25.146;2023-04-07T10:30:22;95385.88;;;13.99;36.14
61408;BME280;47274;43.054;25.146;2023-04-07T10:32:50;95394.69;;;13.42;36.90
61408;BME280;47274;43.054;25.146;2023-04-07T10:35:18;95378.25;;;12.47;38.78
61408;BME280;47274;43.054;25.146;2023-04-07T10:40:31;95382.22;;;11.92;40.04
61408;BME280;47274;43.054;25.146;2023-04-07T10:42:57;95390.94;;;12.16;39.95
61408;BME280;47274;43.054;25.146;2023-04-07T10:45:50;95386.78;;;12.72;40.53
61408;BME280;47274;43.054;25.146;2023-04-07T10:48:18;95383.63;;;13.25;39.26
61408;BME280;47274;43.054;25.146;2023-04-07T10:53:32;95356.41;;;13.15;39.83
61408;BME280;47274;43.054;25.146;2023-04-07T10:56:20;95296.03;;;13.80;38.96
61408;BME280;47274;43.054;25.146;2023-04-07T10:58:46;95306.94;;;14.51;37.30
61408;BME280;47274;43.054;25.146;2023-04-07T11:01:31;95342.38;;;14.95;36.64
61408;BME280;47274;43.054;25.146;2023-04-07T11:03:59;95359.22;;;14.07;37.75
61408;BME280;47274;43.054;25.146;2023-04-07T11:06:25;95382.00;;;13.72;38.01
61408;BME280;47274;43.054;25.146;2023-04-07T11:08:51;95388.66;;;13.02;37.59
61408;BME280;47274;43.054;25.146;2023-04-07T11:11:35;95390.09;;;13.13;37.96
61408;BME280;47274;43.054;25.146;2023-04-07T11:14:04;95399.91;;;13.96;38.44
61408;BME280;47274;43.054;25.146;2023-04-07T11:16:41;95398.13;;;14.89;36.70
61408;BME280;47274;43.054;25.146;2023-04-07T11:19:07;95399.00;;;14.35;37.28
61408;BME280;47274;43.054;25.146;2023-04-07T11:21:33;95394.44;;;14.22;37.53
61408;BME280;47274;43.054;25.146;2023-04-07T11:24:02;95374.72;;;14.30;38.22
61408;BME280;47274;43.054;25.146;2023-04-07T11:26:28;95386.44;;;14.32;37.74
61408;BME280;47274;43.054;25.146;2023-04-07T11:28:57;95375.72;;;13.97;37.82
61408;BME280;47274;43.054;25.146;2023-04-07T11:31:32;95370.84;;;13.40;38.37
61408;BME280;47274;43.054;25.146;2023-04-07T11:34:05;95346.91;;;13.23;39.42
61408;BME280;47274;43.054;25.146;2023-04-07T11:36:33;95394.13;;;13.08;39.74
61408;BME280;47274;43.054;25.146;2023-04-07T11:39:00;95392.25;;;13.80;39.92
61408;BME280;47274;43.054;25.146;2023-04-07T11:41:29;95396.28;;;13.83;37.89
61408;BME280;47274;43.054;25.146;2023-04-07T11:44:09;95389.84;;;14.10;38.77
61408;BME280;47274;43.054;25.146;2023-04-07T11:46:36;95390.41;;;14.43;37.43
61408;BME280;47274;43.054;25.146;2023-04-07T11:49:13;95386.63;;;14.91;37.26
61408;BME280;47274;43.054;25.146;2023-04-07T11:51:42;95371.59;;;14.34;34.96
61408;BME280;47274;43.054;25.146;2023-04-07T11:54:11;95399.41;;;13.70;38.56
61408;BME280;47274;43.054;25.146;2023-04-07T11:56:42;95401.03;;;13.63;37.32
61408;BME280;47274;43.054;25.146;2023-04-07T11:59:08;95401.75;;;13.48;37.07
61408;BME280;47274;43.054;25.146;2023-04-07T12:01:43;95391.25;;;13.50;39.23
61408;BME280;47274;43.054;25.146;2023-04-07T12:04:12;95404.66;;;13.45;38.78
61408;BME280;47274;43.054;25.146;2023-04-07T12:06:39;95412.59;;;13.19;38.97
61408;BME280;47274;43.054;25.146;2023-04-07T12:11:51;95376.09;;;12.99;38.27
61408;BME280;47274;43.054;25.146;2023-04-07T12:14:17;95408.97;;;12.81;38.99
61408;BME280;47274;43.054;25.146;2023-04-07T12:16:43;95416.03;;;12.71;39.52
61408;BME280;47274;43.054;25.146;2023-04-07T12:19:09;95409.47;;;12.52;38.52
61408;BME280;47274;43.054;25.146;2023-04-07T12:21:35;95396.72;;;12.01;39.82
61408;BME280;47274;43.054;25.146;2023-04-07T12:24:01;95411.09;;;11.78;40.43
61408;BME280;47274;43.054;25.146;2023-04-07T12:26:27;95402.81;;;11.50;40.27
61408;BME280;47274;43.054;25.146;2023-04-07T12:28:53;95399.94;;;11.19;40.75
61408;BME280;47274;43.054;25.146;2023-04-07T12:31:19;95433.88;;;11.04;41.05
61408;BME280;47274;43.054;25.146;2023-04-07T12:33:46;95410.00;;;11.12;41.86
61408;BME280;47274;43.054;25.146;2023-04-07T12:36:12;95417.69;;;10.86;42.16
61408;BME280;47274;43.054;25.146;2023-04-07T12:38:37;95386.22;;;10.22;43.15
61408;BME280;47274;43.054;25.146;2023-04-07T12:41:03;95418.78;;;9.76;43.53
61408;BME280;47274;43.054;25.146;2023-04-07T12:43:29;95426.94;;;9.89;45.66
61408;BME280;47274;43.054;25.146;2023-04-07T12:45:57;95423.03;;;10.13;46.26
61408;BME280;47274;43.054;25.146;2023-04-07T12:48:23;95430.50;;;10.42;44.52
61408;BME280;47274;43.054;25.146;2023-04-07T12:50:51;95421.78;;;10.17;44.00
61408;BME280;47274;43.054;25.146;2023-04-07T12:53:17;95424.84;;;10.03;44.86
61408;BME280;47274;43.054;25.146;2023-04-07T12:55:43;95427.78;;;10.08;45.53
61408;BME280;47274;43.054;25.146;2023-04-07T12:58:09;95433.16;;;10.32;45.37
61408;BME280;47274;43.054;25.146;2023-04-07T13:00:35;95390.44;;;9.78;45.44
61408;BME280;47274;43.054;25.146;2023-04-07T13:03:01;95422.91;;;9.87;45.20
61408;BME280;47274;43.054;25.146;2023-04-07T13:05:28;95439.88;;;9.70;46.20
61408;BME280;47274;43.054;25.146;2023-04-07T13:07:53;95446.50;;;9.63;46.47
61408;BME280;47274;43.054;25.146;2023-04-07T13:10:19;95413.88;;;9.37;46.32
61408;BME280;47274;43.054;25.146;2023-04-07T13:12:46;95450.28;;;9.68;46.41
61408;BME280;47274;43.054;25.146;2023-04-07T13:15:12;95448.53;;;9.32;45.35
61408;BME280;47274;43.054;25.146;2023-04-07T13:17:37;95439.13;;;9.50;46.98
61408;BME280;47274;43.054;25.146;2023-04-07T13:23:11;95414.94;;;10.08;45.59
61408;BME280;47274;43.054;25.146;2023-04-07T13:25:37;95448.69;;;10.49;45.18
61408;BME280;47274;43.054;25.146;2023-04-07T13:28:06;95461.59;;;10.57;44.95
61408;BME280;47274;43.054;25.146;2023-04-07T13:30:56;95464.38;;;10.81;44.66
61408;BME280;47274;43.054;25.146;2023-04-07T13:33:22;95447.88;;;10.66;44.76